sensor_id;sensor_type;location;lat;lon;timestamp;temperature;humidity
21992;DHT22;11160;51.576;0.194;2022-08-21T00:00:21;23.10;69.10
21992;DHT22;11160;51.576;0.194;2022-08-21T00:02:53;23.10;69.20
21992;DHT22;11160;51.576;0.194;2022-08-21T00:05:22;23.00;69.00
21992;DHT22;11160;51.576;0.194;2022-08-21T00:07:49;23.00;69.10
21992;DHT22;11160;51.576;0.194;2022-08-21T00:10:17;23.00;69.30
21992;DHT22;11160;51.576;0.194;2022-08-21T00:12:45;23.00;69.30
21992;DHT22;11160;51.576;0.194;2022-08-21T00:15:18;23.00;69.50
21992;DHT22;11160;51.576;0.194;2022-08-21T00:17:46;23.00;69.60
21992;DHT22;11160;51.576;0.194;2022-08-21T00:20:14;23.00;69.50
21992;DHT22;11160;51.576;0.194;2022-08-21T00:22:41;23.00;69.60
21992;DHT22;11160;51.576;0.194;2022-08-21T00:25:09;23.00;69.60
21992;DHT22;11160;51.576;0.194;2022-08-21T00:27:38;22.90;69.60
21992;DHT22;11160;51.576;0.194;2022-08-21T00:30:06;22.90;69.80
21992;DHT22;11160;51.576;0.194;2022-08-21T00:32:36;22.90;69.80
21992;DHT22;11160;51.576;0.194;2022-08-21T00:35:12;22.90;70.00
21992;DHT22;11160;51.576;0.194;2022-08-21T00:37:40;22.90;70.00
21992;DHT22;11160;51.576;0.194;2022-08-21T00:40:11;22.90;70.00
21992;DHT22;11160;51.576;0.194;2022-08-21T00:42:39;22.90;70.00
21992;DHT22;11160;51.576;0.194;2022-08-21T00:45:07;22.90;69.90
21992;DHT22;11160;51.576;0.194;2022-08-21T00:47:34;22.90;70.10
21992;DHT22;11160;51.576;0.194;2022-08-21T00:50:04;22.80;69.90
21992;DHT22;11160;51.576;0.194;2022-08-21T00:52:33;22.80;70.10
21992;DHT22;11160;51.576;0.194;2022-08-21T00:55:00;22.80;70.30
21992;DHT22;11160;51.576;0.194;2022-08-21T00:57:32;22.80;70.20
21992;DHT22;11160;51.576;0.194;2022-08-21T01:00:02;22.80;70.30
21992;DHT22;11160;51.576;0.194;2022-08-21T01:02:31;22.80;70.50
21992;DHT22;11160;51.576;0.194;2022-08-21T01:04:58;22.80;70.40
21992;DHT22;11160;51.576;0.194;2022-08-21T01:07:25;22.80;70.40
21992;DHT22;11160;51.576;0.194;2022-08-21T01:09:53;22.70;70.60
21992;DHT22;11160;51.576;0.194;2022-08-21T01:12:20;22.80;70.40
21992;DHT22;11160;51.576;0.194;2022-08-21T01:14:48;22.70;70.50
21992;DHT22;11160;51.576;0.194;2022-08-21T01:17:15;22.70;70.60
21992;DHT22;11160;51.576;0.194;2022-08-21T01:19:43;22.70;70.70
21992;DHT22;11160;51.576;0.194;2022-08-21T01:22:10;22.70;70.70
21992;DHT22;11160;51.576;0.194;2022-08-21T01:24:37;22.70;70.90
21992;DHT22;11160;51.576;0.194;2022-08-21T01:27:04;22.70;70.90
21992;DHT22;11160;51.576;0.194;2022-08-21T01:30:42;22.70;70.90
21992;DHT22;11160;51.576;0.194;2022-08-21T01:32:36;22.70;71.40
21992;DHT22;11160;51.576;0.194;2022-08-21T01:35:05;22.60;71.20
21992;DHT22;11160;51.576;0.194;2022-08-21T01:37:32;22.60;71.00
21992;DHT22;11160;51.576;0.194;2022-08-21T01:40:00;22.60;71.00
21992;DHT22;11160;51.576;0.194;2022-08-21T01:42:27;22.60;71.20
21992;DHT22;11160;51.576;0.194;2022-08-21T01:44:54;22.60;71.20
21992;DHT22;11160;51.576;0.194;2022-08-21T01:47:23;22.60;71.30
21992;DHT22;11160;51.576;0.194;2022-08-21T01:49:51;22.60;71.20
21992;DHT22;11160;51.576;0.194;2022-08-21T01:52:18;22.60;72.10
21992;DHT22;11160;51.576;0.194;2022-08-21T01:54:46;22.50;71.50
21992;DHT22;11160;51.576;0.194;2022-08-21T01:57:21;22.50;71.40
21992;DHT22;11160;51.576;0.194;2022-08-21T01:59:52;22.50;71.50
21992;DHT22;11160;51.576;0.194;2022-08-21T02:02:19;22.50;71.50
21992;DHT22;11160;51.576;0.194;2022-08-21T02:04:46;22.50;71.70
21992;DHT22;11160;51.576;0.194;2022-08-21T02:07:13;22.50;71.70
21992;DHT22;11160;51.576;0.194;2022-08-21T02:10:00;22.50;71.80
21992;DHT22;11160;51.576;0.194;2022-08-21T02:12:27;22.50;72.20
21992;DHT22;11160;51.576;0.194;2022-08-21T02:14:54;22.50;72.00
21992;DHT22;11160;51.576;0.194;2022-08-21T02:17:21;22.50;72.00
21992;DHT22;11160;51.576;0.194;2022-08-21T02:19:49;22.50;72.10
21992;DHT22;11160;51.576;0.194;2022-08-21T02:22:16;22.40;72.10
21992;DHT22;11160;51.576;0.194;2022-08-21T02:24:43;22.40;72.10
21992;DHT22;11160;51.576;0.194;2022-08-21T02:27:23;22.40;72.10
21992;DHT22;11160;51.576;0.194;2022-08-21T02:29:56;22.40;72.40
21992;DHT22;11160;51.576;0.194;2022-08-21T02:32:24;22.40;72.20
21992;DHT22;11160;51.576;0.194;2022-08-21T02:34:52;22.40;72.40
21992;DHT22;11160;51.576;0.194;2022-08-21T02:37:20;22.40;72.40
21992;DHT22;11160;51.576;0.194;2022-08-21T02:39:47;22.40;72.50
21992;DHT22;11160;51.576;0.194;2022-08-21T02:42:14;22.40;72.50
21992;DHT22;11160;51.576;0.194;2022-08-21T02:44:42;22.40;72.60
21992;DHT22;11160;51.576;0.194;2022-08-21T02:47:09;22.40;72.70
21992;DHT22;11160;51.576;0.194;2022-08-21T02:49:39;22.40;72.80
21992;DHT22;11160;51.576;0.194;2022-08-21T02:52:06;22.30;72.90
21992;DHT22;11160;51.576;0.194;2022-08-21T02:54:32;22.30;72.80
21992;DHT22;11160;51.576;0.194;2022-08-21T02:57:00;22.30;72.80
21992;DHT22;11160;51.576;0.194;2022-08-21T02:59:27;22.30;72.80
21992;DHT22;11160;51.576;0.194;2022-08-21T03:01:54;22.30;72.90
21992;DHT22;11160;51.576;0.194;2022-08-21T03:04:22;22.30;73.00
21992;DHT22;11160;51.576;0.194;2022-08-21T03:06:49;22.30;73.10
21992;DHT22;11160;51.576;0.194;2022-08-21T03:09:16;22.30;73.10
21992;DHT22;11160;51.576;0.194;2022-08-21T03:11:44;22.30;73.20
21992;DHT22;11160;51.576;0.194;2022-08-21T03:14:10;22.30;73.30
21992;DHT22;11160;51.576;0.194;2022-08-21T03:16:37;22.30;73.30
21992;DHT22;11160;51.576;0.194;2022-08-21T03:19:05;22.20;73.20
21992;DHT22;11160;51.576;0.194;2022-08-21T03:21:32;22.30;73.40
21992;DHT22;11160;51.576;0.194;2022-08-21T03:24:00;22.20;73.30
21992;DHT22;11160;51.576;0.194;2022-08-21T03:26:30;22.20;73.50
21992;DHT22;11160;51.576;0.194;2022-08-21T03:28:58;22.30;73.50
21992;DHT22;11160;51.576;0.194;2022-08-21T03:31:25;22.20;73.50
21992;DHT22;11160;51.576;0.194;2022-08-21T03:33:58;22.20;73.50
21992;DHT22;11160;51.576;0.194;2022-08-21T03:36:25;22.20;73.70
21992;DHT22;11160;51.576;0.194;2022-08-21T03:38:53;22.20;73.80
21992;DHT22;11160;51.576;0.194;2022-08-21T03:41:20;22.20;73.90
21992;DHT22;11160;51.576;0.194;2022-08-21T03:43:47;22.20;73.90
21992;DHT22;11160;51.576;0.194;2022-08-21T03:46:14;22.20;73.90
21992;DHT22;11160;51.576;0.194;2022-08-21T03:48:41;22.20;73.90
21992;DHT22;11160;51.576;0.194;2022-08-21T03:51:08;22.10;74.10
21992;DHT22;11160;51.576;0.194;2022-08-21T03:53:35;22.10;74.00
21992;DHT22;11160;51.576;0.194;2022-08-21T03:56:04;22.10;74.10
21992;DHT22;11160;51.576;0.194;2022-08-21T03:58:34;22.10;74.20
21992;DHT22;11160;51.576;0.194;2022-08-21T04:01:03;22.10;74.20
21992;DHT22;11160;51.576;0.194;2022-08-21T04:03:31;22.10;74.30
21992;DHT22;11160;51.576;0.194;2022-08-21T04:05:58;22.10;74.40
21992;DHT22;11160;51.576;0.194;2022-08-21T04:08:26;22.10;74.30
21992;DHT22;11160;51.576;0.194;2022-08-21T04:10:56;22.10;74.40
21992;DHT22;11160;51.576;0.194;2022-08-21T04:13:23;22.10;74.40
21992;DHT22;11160;51.576;0.194;2022-08-21T04:15:50;22.00;74.50
21992;DHT22;11160;51.576;0.194;2022-08-21T04:18:18;22.00;74.50
21992;DHT22;11160;51.576;0.194;2022-08-21T04:20:48;22.00;74.60
21992;DHT22;11160;51.576;0.194;2022-08-21T04:23:19;22.00;74.70
21992;DHT22;11160;51.576;0.194;2022-08-21T04:25:51;22.00;75.30
21992;DHT22;11160;51.576;0.194;2022-08-21T04:28:18;22.00;75.50
21992;DHT22;11160;51.576;0.194;2022-08-21T04:30:45;22.00;74.80
21992;DHT22;11160;51.576;0.194;2022-08-21T04:33:13;22.00;74.90
21992;DHT22;11160;51.576;0.194;2022-08-21T04:35:40;22.00;74.90
21992;DHT22;11160;51.576;0.194;2022-08-21T04:38:10;21.90;75.00
21992;DHT22;11160;51.576;0.194;2022-08-21T04:40:37;22.00;75.10
21992;DHT22;11160;51.576;0.194;2022-08-21T04:43:06;21.90;75.00
21992;DHT22;11160;51.576;0.194;2022-08-21T04:45:39;22.00;75.20
21992;DHT22;11160;51.576;0.194;2022-08-21T04:48:08;21.90;75.20
21992;DHT22;11160;51.576;0.194;2022-08-21T04:50:57;21.90;75.30
21992;DHT22;11160;51.576;0.194;2022-08-21T04:56:01;21.90;75.40
21992;DHT22;11160;51.576;0.194;2022-08-21T04:58:29;21.90;75.60
21992;DHT22;11160;51.576;0.194;2022-08-21T05:00:58;21.90;75.50
21992;DHT22;11160;51.576;0.194;2022-08-21T05:03:25;21.90;75.60
21992;DHT22;11160;51.576;0.194;2022-08-21T05:05:52;21.90;75.70
21992;DHT22;11160;51.576;0.194;2022-08-21T05:08:21;21.90;75.60
21992;DHT22;11160;51.576;0.194;2022-08-21T05:10:50;21.90;75.80
21992;DHT22;11160;51.576;0.194;2022-08-21T05:13:17;21.90;75.90
21992;DHT22;11160;51.576;0.194;2022-08-21T05:15:44;21.90;75.90
21992;DHT22;11160;51.576;0.194;2022-08-21T05:18:12;21.90;75.90
21992;DHT22;11160;51.576;0.194;2022-08-21T05:20:39;21.90;76.00
21992;DHT22;11160;51.576;0.194;2022-08-21T05:23:10;21.90;76.10
21992;DHT22;11160;51.576;0.194;2022-08-21T05:25:38;21.80;76.10
21992;DHT22;11160;51.576;0.194;2022-08-21T05:28:05;21.80;76.90
21992;DHT22;11160;51.576;0.194;2022-08-21T05:30:34;21.90;76.20
21992;DHT22;11160;51.576;0.194;2022-08-21T05:33:03;21.90;76.20
21992;DHT22;11160;51.576;0.194;2022-08-21T05:35:31;21.90;76.20
21992;DHT22;11160;51.576;0.194;2022-08-21T05:38:03;21.80;76.20
21992;DHT22;11160;51.576;0.194;2022-08-21T05:40:31;21.90;76.40
21992;DHT22;11160;51.576;0.194;2022-08-21T05:42:58;21.90;76.40
21992;DHT22;11160;51.576;0.194;2022-08-21T05:45:31;21.90;76.40
21992;DHT22;11160;51.576;0.194;2022-08-21T05:48:20;21.90;76.40
21992;DHT22;11160;51.576;0.194;2022-08-21T05:50:49;21.90;76.60
21992;DHT22;11160;51.576;0.194;2022-08-21T05:53:18;21.80;76.30
21992;DHT22;11160;51.576;0.194;2022-08-21T05:55:46;21.90;76.60
21992;DHT22;11160;51.576;0.194;2022-08-21T05:58:15;21.90;76.60
21992;DHT22;11160;51.576;0.194;2022-08-21T06:00:43;21.90;76.60
21992;DHT22;11160;51.576;0.194;2022-08-21T06:03:16;21.90;76.70
21992;DHT22;11160;51.576;0.194;2022-08-21T06:05:44;21.90;76.80
21992;DHT22;11160;51.576;0.194;2022-08-21T06:08:13;21.90;76.80
21992;DHT22;11160;51.576;0.194;2022-08-21T06:10:40;21.80;76.70
21992;DHT22;11160;51.576;0.194;2022-08-21T06:13:08;21.90;76.70
21992;DHT22;11160;51.576;0.194;2022-08-21T06:15:35;21.90;76.80
21992;DHT22;11160;51.576;0.194;2022-08-21T06:18:02;21.90;76.80
21992;DHT22;11160;51.576;0.194;2022-08-21T06:20:30;21.90;76.90
21992;DHT22;11160;51.576;0.194;2022-08-21T06:22:57;21.90;76.90
21992;DHT22;11160;51.576;0.194;2022-08-21T06:25:24;21.90;77.00
21992;DHT22;11160;51.576;0.194;2022-08-21T06:27:51;21.90;76.90
21992;DHT22;11160;51.576;0.194;2022-08-21T06:30:18;21.90;76.90
21992;DHT22;11160;51.576;0.194;2022-08-21T06:32:45;21.90;76.80
21992;DHT22;11160;51.576;0.194;2022-08-21T06:35:12;22.00;76.90
21992;DHT22;11160;51.576;0.194;2022-08-21T06:37:40;22.00;76.80
21992;DHT22;11160;51.576;0.194;2022-08-21T06:40:07;22.00;76.70
21992;DHT22;11160;51.576;0.194;2022-08-21T06:42:39;22.00;76.60
21992;DHT22;11160;51.576;0.194;2022-08-21T06:45:07;22.00;76.20
21992;DHT22;11160;51.576;0.194;2022-08-21T06:47:34;22.10;76.00
21992;DHT22;11160;51.576;0.194;2022-08-21T06:50:01;22.10;75.90
21992;DHT22;11160;51.576;0.194;2022-08-21T06:52:29;22.10;75.80
21992;DHT22;11160;51.576;0.194;2022-08-21T06:54:56;22.10;75.90
21992;DHT22;11160;51.576;0.194;2022-08-21T06:57:23;22.20;76.00
21992;DHT22;11160;51.576;0.194;2022-08-21T06:59:51;22.20;75.90
21992;DHT22;11160;51.576;0.194;2022-08-21T07:02:18;22.20;75.90
21992;DHT22;11160;51.576;0.194;2022-08-21T07:04:45;22.20;76.00
21992;DHT22;11160;51.576;0.194;2022-08-21T07:07:12;22.20;76.00
21992;DHT22;11160;51.576;0.194;2022-08-21T07:09:40;22.20;76.80
21992;DHT22;11160;51.576;0.194;2022-08-21T07:12:07;22.20;76.10
21992;DHT22;11160;51.576;0.194;2022-08-21T07:14:34;22.20;76.20
21992;DHT22;11160;51.576;0.194;2022-08-21T07:17:01;22.30;76.30
21992;DHT22;11160;51.576;0.194;2022-08-21T07:19:28;22.30;76.30
21992;DHT22;11160;51.576;0.194;2022-08-21T07:21:58;22.30;76.20
21992;DHT22;11160;51.576;0.194;2022-08-21T07:24:26;22.30;76.40
21992;DHT22;11160;51.576;0.194;2022-08-21T07:26:55;22.30;76.40
21992;DHT22;11160;51.576;0.194;2022-08-21T07:29:22;22.30;76.50
21992;DHT22;11160;51.576;0.194;2022-08-21T07:31:49;22.40;76.60
21992;DHT22;11160;51.576;0.194;2022-08-21T07:34:16;22.40;77.60
21992;DHT22;11160;51.576;0.194;2022-08-21T07:36:43;22.40;77.00
21992;DHT22;11160;51.576;0.194;2022-08-21T07:39:10;22.40;77.20
21992;DHT22;11160;51.576;0.194;2022-08-21T07:41:37;22.40;77.00
21992;DHT22;11160;51.576;0.194;2022-08-21T07:44:04;22.40;77.20
21992;DHT22;11160;51.576;0.194;2022-08-21T07:46:32;22.50;77.20
21992;DHT22;11160;51.576;0.194;2022-08-21T07:49:00;22.50;77.30
21992;DHT22;11160;51.576;0.194;2022-08-21T07:51:28;22.50;77.40
21992;DHT22;11160;51.576;0.194;2022-08-21T07:53:57;22.50;77.70
21992;DHT22;11160;51.576;0.194;2022-08-21T07:56:27;22.50;77.90
21992;DHT22;11160;51.576;0.194;2022-08-21T07:58:54;22.50;77.70
21992;DHT22;11160;51.576;0.194;2022-08-21T08:01:22;22.60;78.00
21992;DHT22;11160;51.576;0.194;2022-08-21T08:03:50;22.60;78.10
21992;DHT22;11160;51.576;0.194;2022-08-21T08:06:17;22.60;78.00
21992;DHT22;11160;51.576;0.194;2022-08-21T08:08:46;22.60;78.20
21992;DHT22;11160;51.576;0.194;2022-08-21T08:11:13;22.60;78.20
21992;DHT22;11160;51.576;0.194;2022-08-21T08:13:48;22.60;78.30
21992;DHT22;11160;51.576;0.194;2022-08-21T08:16:15;22.60;78.40
21992;DHT22;11160;51.576;0.194;2022-08-21T08:18:43;22.70;78.50
21992;DHT22;11160;51.576;0.194;2022-08-21T08:21:11;22.70;78.30
21992;DHT22;11160;51.576;0.194;2022-08-21T08:23:39;22.70;78.30
21992;DHT22;11160;51.576;0.194;2022-08-21T08:26:06;22.70;78.50
21992;DHT22;11160;51.576;0.194;2022-08-21T08:28:52;22.70;78.60
21992;DHT22;11160;51.576;0.194;2022-08-21T08:31:19;22.80;78.90
21992;DHT22;11160;51.576;0.194;2022-08-21T08:33:46;22.80;79.10
21992;DHT22;11160;51.576;0.194;2022-08-21T08:36:15;22.80;79.40
21992;DHT22;11160;51.576;0.194;2022-08-21T08:38:43;22.80;79.60
21992;DHT22;11160;51.576;0.194;2022-08-21T08:41:14;22.90;79.60
21992;DHT22;11160;51.576;0.194;2022-08-21T08:43:52;22.90;79.90
21992;DHT22;11160;51.576;0.194;2022-08-21T08:46:26;23.00;79.80
21992;DHT22;11160;51.576;0.194;2022-08-21T08:49:00;23.00;79.90
21992;DHT22;11160;51.576;0.194;2022-08-21T08:54:55;23.10;80.10
21992;DHT22;11160;51.576;0.194;2022-08-21T08:57:25;23.20;80.50
21992;DHT22;11160;51.576;0.194;2022-08-21T08:59:55;23.20;80.70
21992;DHT22;11160;51.576;0.194;2022-08-21T09:02:23;23.30;80.90
21992;DHT22;11160;51.576;0.194;2022-08-21T09:04:53;23.30;81.20
21992;DHT22;11160;51.576;0.194;2022-08-21T09:10:19;23.30;81.40
21992;DHT22;11160;51.576;0.194;2022-08-21T09:22:26;23.40;73.00
21992;DHT22;11160;51.576;0.194;2022-08-21T09:25:18;23.40;72.50
21992;DHT22;11160;51.576;0.194;2022-08-21T09:27:49;23.40;71.20
21992;DHT22;11160;51.576;0.194;2022-08-21T09:30:18;23.30;72.40
21992;DHT22;11160;51.576;0.194;2022-08-21T09:32:48;23.30;71.70
21992;DHT22;11160;51.576;0.194;2022-08-21T09:35:21;23.30;71.40
21992;DHT22;11160;51.576;0.194;2022-08-21T09:37:57;23.30;70.60
21992;DHT22;11160;51.576;0.194;2022-08-21T09:43:25;23.40;69.70
21992;DHT22;11160;51.576;0.194;2022-08-21T09:46:04;23.40;70.20
21992;DHT22;11160;51.576;0.194;2022-08-21T09:48:43;23.40;69.60
21992;DHT22;11160;51.576;0.194;2022-08-21T09:51:20;23.40;69.10
21992;DHT22;11160;51.576;0.194;2022-08-21T09:54:12;23.40;69.30
21992;DHT22;11160;51.576;0.194;2022-08-21T09:57:01;23.50;67.60
21992;DHT22;11160;51.576;0.194;2022-08-21T09:59:50;23.50;67.60
21992;DHT22;11160;51.576;0.194;2022-08-21T10:02:28;23.60;68.10
21992;DHT22;11160;51.576;0.194;2022-08-21T10:07:30;23.60;66.80
21992;DHT22;11160;51.576;0.194;2022-08-21T10:10:08;23.60;66.40
21992;DHT22;11160;51.576;0.194;2022-08-21T10:20:54;23.80;64.40
21992;DHT22;11160;51.576;0.194;2022-08-21T10:23:30;23.80;65.00
21992;DHT22;11160;51.576;0.194;2022-08-21T10:34:21;24.10;64.20
21992;DHT22;11160;51.576;0.194;2022-08-21T10:39:33;24.20;64.00
21992;DHT22;11160;51.576;0.194;2022-08-21T10:42:41;24.30;63.80
21992;DHT22;11160;51.576;0.194;2022-08-21T10:48:06;24.30;63.00
21992;DHT22;11160;51.576;0.194;2022-08-21T10:56:26;24.60;62.00
21992;DHT22;11160;51.576;0.194;2022-08-21T10:59:16;24.60;61.90
21992;DHT22;11160;51.576;0.194;2022-08-21T11:01:51;24.70;61.90
21992;DHT22;11160;51.576;0.194;2022-08-21T11:04:26;24.60;61.30
21992;DHT22;11160;51.576;0.194;2022-08-21T11:07:37;24.70;61.20
21992;DHT22;11160;51.576;0.194;2022-08-21T11:10:23;24.70;60.50
21992;DHT22;11160;51.576;0.194;2022-08-21T11:13:04;24.60;59.80
21992;DHT22;11160;51.576;0.194;2022-08-21T11:26:49;24.40;60.80
21992;DHT22;11160;51.576;0.194;2022-08-21T11:29:24;24.30;60.90
21992;DHT22;11160;51.576;0.194;2022-08-21T11:35:03;24.30;59.70
21992;DHT22;11160;51.576;0.194;2022-08-21T11:43:31;24.20;60.00
21992;DHT22;11160;51.576;0.194;2022-08-21T11:48:53;24.30;59.40
21992;DHT22;11160;51.576;0.194;2022-08-21T11:51:44;24.30;59.50
21992;DHT22;11160;51.576;0.194;2022-08-21T11:54:33;24.40;59.70
21992;DHT22;11160;51.576;0.194;2022-08-21T11:57:20;24.40;59.70
21992;DHT22;11160;51.576;0.194;2022-08-21T12:02:48;24.40;59.80
21992;DHT22;11160;51.576;0.194;2022-08-21T12:05:34;24.40;60.20
21992;DHT22;11160;51.576;0.194;2022-08-21T12:10:40;24.50;59.90
21992;DHT22;11160;51.576;0.194;2022-08-21T12:13:11;24.50;59.60
21992;DHT22;11160;51.576;0.194;2022-08-21T12:15:40;24.50;59.50
21992;DHT22;11160;51.576;0.194;2022-08-21T12:18:43;24.50;59.60
21992;DHT22;11160;51.576;0.194;2022-08-21T12:21:21;24.50;58.70
21992;DHT22;11160;51.576;0.194;2022-08-21T12:27:00;24.50;60.10
21992;DHT22;11160;51.576;0.194;2022-08-21T12:29:36;24.50;59.10
21992;DHT22;11160;51.576;0.194;2022-08-21T12:37:38;24.50;59.40
21992;DHT22;11160;51.576;0.194;2022-08-21T12:40:05;24.50;59.30
21992;DHT22;11160;51.576;0.194;2022-08-21T12:42:40;24.50;59.30
21992;DHT22;11160;51.576;0.194;2022-08-21T12:45:33;24.50;59.30
21992;DHT22;11160;51.576;0.194;2022-08-21T12:48:26;24.60;59.30
21992;DHT22;11160;51.576;0.194;2022-08-21T12:51:29;24.60;59.80
21992;DHT22;11160;51.576;0.194;2022-08-21T12:53:55;24.70;59.50
21992;DHT22;11160;51.576;0.194;2022-08-21T12:56:25;24.70;59.80
21992;DHT22;11160;51.576;0.194;2022-08-21T12:59:12;24.80;59.70
21992;DHT22;11160;51.576;0.194;2022-08-21T13:01:47;24.80;59.20
21992;DHT22;11160;51.576;0.194;2022-08-21T13:04:22;24.90;59.40
21992;DHT22;11160;51.576;0.194;2022-08-21T13:06:53;24.90;59.50
21992;DHT22;11160;51.576;0.194;2022-08-21T13:09:27;25.00;60.10
21992;DHT22;11160;51.576;0.194;2022-08-21T13:11:54;25.10;59.60
21992;DHT22;11160;51.576;0.194;2022-08-21T13:14:42;25.30;59.70
21992;DHT22;11160;51.576;0.194;2022-08-21T13:17:16;25.50;59.30
21992;DHT22;11160;51.576;0.194;2022-08-21T13:20:00;25.50;59.20
21992;DHT22;11160;51.576;0.194;2022-08-21T13:22:28;25.60;58.00
21992;DHT22;11160;51.576;0.194;2022-08-21T13:25:01;25.80;58.40
21992;DHT22;11160;51.576;0.194;2022-08-21T13:27:33;26.00;58.30
21992;DHT22;11160;51.576;0.194;2022-08-21T13:32:42;26.00;58.10
21992;DHT22;11160;51.576;0.194;2022-08-21T13:35:13;26.00;57.30
21992;DHT22;11160;51.576;0.194;2022-08-21T13:37:42;26.00;57.00
21992;DHT22;11160;51.576;0.194;2022-08-21T13:40:15;25.90;56.80
21992;DHT22;11160;51.576;0.194;2022-08-21T13:42:45;26.00;56.70
21992;DHT22;11160;51.576;0.194;2022-08-21T13:45:30;26.00;56.60
21992;DHT22;11160;51.576;0.194;2022-08-21T13:48:00;26.00;56.40
21992;DHT22;11160;51.576;0.194;2022-08-21T13:50:34;26.00;56.40
21992;DHT22;11160;51.576;0.194;2022-08-21T13:53:06;26.00;56.00
21992;DHT22;11160;51.576;0.194;2022-08-21T13:55:38;26.00;55.60
21992;DHT22;11160;51.576;0.194;2022-08-21T13:58:06;26.00;55.80
21992;DHT22;11160;51.576;0.194;2022-08-21T14:00:42;26.00;55.60
21992;DHT22;11160;51.576;0.194;2022-08-21T14:03:10;26.10;55.80
21992;DHT22;11160;51.576;0.194;2022-08-21T14:05:45;26.10;56.10
21992;DHT22;11160;51.576;0.194;2022-08-21T14:08:18;26.20;56.30
21992;DHT22;11160;51.576;0.194;2022-08-21T14:10:56;26.20;55.80
21992;DHT22;11160;51.576;0.194;2022-08-21T14:13:33;26.20;55.60
21992;DHT22;11160;51.576;0.194;2022-08-21T14:16:14;26.30;56.90
21992;DHT22;11160;51.576;0.194;2022-08-21T14:18:48;26.40;56.70
21992;DHT22;11160;51.576;0.194;2022-08-21T14:21:29;26.50;55.30
21992;DHT22;11160;51.576;0.194;2022-08-21T14:24:11;26.50;54.30
21992;DHT22;11160;51.576;0.194;2022-08-21T14:26:53;26.50;55.60
21992;DHT22;11160;51.576;0.194;2022-08-21T14:29:25;26.50;54.80
21992;DHT22;11160;51.576;0.194;2022-08-21T14:32:00;26.60;56.10
21992;DHT22;11160;51.576;0.194;2022-08-21T14:34:51;26.70;55.40
21992;DHT22;11160;51.576;0.194;2022-08-21T14:37:21;26.70;55.20
21992;DHT22;11160;51.576;0.194;2022-08-21T14:39:49;26.80;55.00
21992;DHT22;11160;51.576;0.194;2022-08-21T14:42:16;26.80;54.60
21992;DHT22;11160;51.576;0.194;2022-08-21T14:44:43;26.80;54.30
21992;DHT22;11160;51.576;0.194;2022-08-21T14:47:10;26.80;53.70
21992;DHT22;11160;51.576;0.194;2022-08-21T14:49:47;26.80;53.70
21992;DHT22;11160;51.576;0.194;2022-08-21T14:52:14;26.90;53.60
21992;DHT22;11160;51.576;0.194;2022-08-21T14:54:42;26.90;53.70
21992;DHT22;11160;51.576;0.194;2022-08-21T14:57:11;26.90;53.80
21992;DHT22;11160;51.576;0.194;2022-08-21T14:59:39;27.00;54.10
21992;DHT22;11160;51.576;0.194;2022-08-21T15:02:08;26.90;54.40
21992;DHT22;11160;51.576;0.194;2022-08-21T15:04:35;26.90;54.70
21992;DHT22;11160;51.576;0.194;2022-08-21T15:07:02;26.90;55.00
21992;DHT22;11160;51.576;0.194;2022-08-21T15:09:30;26.90;55.30
21992;DHT22;11160;51.576;0.194;2022-08-21T15:11:58;26.90;55.60
21992;DHT22;11160;51.576;0.194;2022-08-21T15:14:29;26.90;56.50
21992;DHT22;11160;51.576;0.194;2022-08-21T15:16:57;26.90;56.10
21992;DHT22;11160;51.576;0.194;2022-08-21T15:19:25;26.90;56.30
21992;DHT22;11160;51.576;0.194;2022-08-21T15:21:52;26.80;56.50
21992;DHT22;11160;51.576;0.194;2022-08-21T15:24:19;26.80;56.70
21992;DHT22;11160;51.576;0.194;2022-08-21T15:26:47;26.80;57.00
21992;DHT22;11160;51.576;0.194;2022-08-21T15:29:15;26.80;57.30
21992;DHT22;11160;51.576;0.194;2022-08-21T15:31:57;26.70;57.40
21992;DHT22;11160;51.576;0.194;2022-08-21T15:34:28;26.70;57.80
21992;DHT22;11160;51.576;0.194;2022-08-21T15:36:57;26.60;58.00
21992;DHT22;11160;51.576;0.194;2022-08-21T15:39:27;26.60;58.20
21992;DHT22;11160;51.576;0.194;2022-08-21T15:41:57;26.60;58.40
21992;DHT22;11160;51.576;0.194;2022-08-21T15:44:26;26.50;58.50
21992;DHT22;11160;51.576;0.194;2022-08-21T15:46:54;26.50;58.70
21992;DHT22;11160;51.576;0.194;2022-08-21T15:49:22;26.50;58.90
21992;DHT22;11160;51.576;0.194;2022-08-21T15:51:49;26.50;59.00
21992;DHT22;11160;51.576;0.194;2022-08-21T15:54:16;26.50;59.10
21992;DHT22;11160;51.576;0.194;2022-08-21T15:56:46;26.50;59.30
21992;DHT22;11160;51.576;0.194;2022-08-21T15:59:18;26.50;59.50
21992;DHT22;11160;51.576;0.194;2022-08-21T16:01:46;26.40;59.70
21992;DHT22;11160;51.576;0.194;2022-08-21T16:04:21;26.40;59.80
21992;DHT22;11160;51.576;0.194;2022-08-21T16:06:49;26.40;59.90
21992;DHT22;11160;51.576;0.194;2022-08-21T16:09:22;26.40;60.10
21992;DHT22;11160;51.576;0.194;2022-08-21T16:11:49;26.40;60.30
21992;DHT22;11160;51.576;0.194;2022-08-21T16:14:17;26.40;60.60
21992;DHT22;11160;51.576;0.194;2022-08-21T16:16:45;26.40;60.80
21992;DHT22;11160;51.576;0.194;2022-08-21T16:19:12;26.40;61.00
21992;DHT22;11160;51.576;0.194;2022-08-21T16:21:40;26.30;61.20
21992;DHT22;11160;51.576;0.194;2022-08-21T16:24:07;26.30;61.40
21992;DHT22;11160;51.576;0.194;2022-08-21T16:26:34;26.30;61.60
21992;DHT22;11160;51.576;0.194;2022-08-21T16:29:02;26.30;62.00
21992;DHT22;11160;51.576;0.194;2022-08-21T16:31:31;26.20;62.20
21992;DHT22;11160;51.576;0.194;2022-08-21T16:33:59;26.20;62.40
21992;DHT22;11160;51.576;0.194;2022-08-21T16:36:26;26.20;62.60
21992;DHT22;11160;51.576;0.194;2022-08-21T16:38:55;26.20;62.90
21992;DHT22;11160;51.576;0.194;2022-08-21T16:41:23;26.20;63.20
21992;DHT22;11160;51.576;0.194;2022-08-21T16:43:52;26.20;63.40
21992;DHT22;11160;51.576;0.194;2022-08-21T16:46:21;26.20;63.70
21992;DHT22;11160;51.576;0.194;2022-08-21T16:48:49;26.10;64.00
21992;DHT22;11160;51.576;0.194;2022-08-21T16:51:16;26.10;64.30
21992;DHT22;11160;51.576;0.194;2022-08-21T16:53:43;26.10;64.70
21992;DHT22;11160;51.576;0.194;2022-08-21T16:56:13;26.10;64.90
21992;DHT22;11160;51.576;0.194;2022-08-21T16:58:44;26.10;65.20
21992;DHT22;11160;51.576;0.194;2022-08-21T17:01:16;26.00;65.40
21992;DHT22;11160;51.576;0.194;2022-08-21T17:03:47;26.00;65.50
21992;DHT22;11160;51.576;0.194;2022-08-21T17:06:17;26.00;65.50
21992;DHT22;11160;51.576;0.194;2022-08-21T17:08:45;26.00;65.60
21992;DHT22;11160;51.576;0.194;2022-08-21T17:14:12;26.00;67.00
21992;DHT22;11160;51.576;0.194;2022-08-21T17:16:44;26.00;66.40
21992;DHT22;11160;51.576;0.194;2022-08-21T17:19:12;26.00;66.50
21992;DHT22;11160;51.576;0.194;2022-08-21T17:21:39;26.00;66.80
21992;DHT22;11160;51.576;0.194;2022-08-21T17:24:06;26.00;67.00
21992;DHT22;11160;51.576;0.194;2022-08-21T17:26:33;25.90;67.20